Flight Track Log - Related Links

Times and Time Zones

All times are in EDT time to prevent confusion due to time zone crossing. See the DAL3793 flight status page for this flight to view local times or setup timezone preferences in your user account.

Time Position Orientation Groundspeed Altitude Reporting Facility
EDT Latitude Longitude Course Direction KTS MPH feet Rate Location/Type
Sun 03:32:43 PM 40.6167 -73.8667 270° West 202 232 3,400  Level New York TRACON
Sun 03:33:43 PM 40.5667 -73.9333 225° Southwest 264 304 5,300 2,400 Climbing New York TRACON
Sun 03:34:00 PM 40.4559 -74.0664 229° Southwest  Level FlightAware Approximate
Sun 03:34:43 PM 40.5000 -73.9833 210° Southwest 277 319 8,200  Level New York TRACON
Sun 03:35:00 PM 40.3893 -74.1662 229° Southwest  Level FlightAware Approximate
Sun 03:35:43 PM 40.4500 -74.0500 225° Southwest 287 330 10,800  Level New York TRACON
Sun 03:36:00 PM 40.3254 -74.2689 232° Southwest  Level FlightAware Approximate
Sun 03:36:43 PM 40.4000 -74.1500 237° Southwest 337 388 12,100  Level New York TRACON
Sun 03:37:00 PM 40.2618 -74.3715 217° Southwest  Level FlightAware Approximate
Sun 03:37:42 PM 40.3436 -74.2483 233° Southwest 355 409 14,000  Level New York Center
Sun 03:38:00 PM 40.2000 -74.4690 270° West  Level FlightAware Approximate
Sun 03:38:43 PM 40.2889 -74.3408 232° Southwest 355 409 15,700  Level New York Center
Sun 03:39:44 PM 40.2269 -74.4519 234° Southwest 355 409 17,300 1,377 Climbing New York Center
Sun 03:40:45 PM 40.1964 -74.5617 250° West 350 403 18,500 1,412 Climbing New York Center
Sun 03:41:43 PM 40.1856 -74.7022 264° West 356 410 20,100 1,282 Climbing New York Center
Sun 03:42:42 PM 40.1750 -74.8322 264° West 361 415 21,000 843 Climbing New York Center
Sun 03:43:44 PM 40.1686 -74.9514 266° West 366 421 21,800 885 Climbing New York Center
Sun 03:44:44 PM 40.1578 -75.0836 264° West 371 427 22,800 1,017 Climbing New York Center
Sun 03:45:42 PM 40.1483 -75.2244 265° West 376 433 23,800 1,017 Climbing New York Center
Sun 03:46:42 PM 40.1325 -75.3617 261° West 382 440 24,800 1,091 Climbing New York Center
Sun 03:47:43 PM 40.0569 -75.4842 231° Southwest 381 438 26,000 992 Climbing New York Center
Sun 03:48:43 PM 39.9794 -75.5928 227° Southwest 395 455 26,800 694 Climbing New York Center
Sun 03:49:44 PM 39.9042 -75.7014 228° Southwest 407 468 27,400 595 Climbing New York Center
Sun 03:50:44 PM 39.8303 -75.8178 230° Southwest 420 483 28,000 605 Climbing New York Center
Sun 03:51:43 PM 39.7567 -75.9342 231° Southwest 420 483 28,600 591 Climbing New York Center
Sun 03:54:07 PM 39.5828 -76.2108 231° Southwest 416 479 30,000 416 Climbing Washington Center
Sun 03:55:05 PM 39.5072 -76.3231 229° Southwest 427 491 30,000  Level Washington Center
Sun 03:56:05 PM 39.4272 -76.4406 229° Southwest 427 491 30,000  Level Washington Center
Sun 03:57:05 PM 39.3619 -76.5472 232° Southwest 427 491 30,000  Level Washington Center
Sun 03:58:07 PM 39.2858 -76.6642 230° Southwest 427 491 30,000  Level Washington Center
Sun 03:59:05 PM 39.2119 -76.7783 230° Southwest 427 491 30,000  Level Washington Center
Sun 04:00:05 PM 39.1378 -76.8975 231° Southwest 427 491 30,000  Level Washington Center
Sun 04:01:07 PM 39.0633 -77.0111 230° Southwest 427 491 30,000  Level Washington Center
Sun 04:02:08 PM 38.9789 -77.1083 222° Southwest 422 486 30,000  Level Washington Center
Sun 04:03:05 PM 38.8878 -77.2106 221° Southwest 422 486 30,000  Level Washington Center
Sun 04:04:06 PM 38.7989 -77.3069 220° Southwest 427 491 30,000  Level Washington Center
Sun 04:05:05 PM 38.7100 -77.4033 220° Southwest 427 491 30,000  Level Washington Center
Sun 04:06:06 PM 38.6189 -77.4994 220° Southwest 427 491 30,000  Level Washington Center
Sun 04:07:07 PM 38.5192 -77.6083 221° Southwest 432 497 30,000  Level Washington Center
Sun 04:08:05 PM 38.4278 -77.7092 221° Southwest 437 503 30,000  Level Washington Center
Sun 04:09:06 PM 38.3342 -77.8097 220° Southwest 437 503 30,000  Level Washington Center
Sun 04:10:07 PM 38.2425 -77.9103 221° Southwest 437 503 30,000  Level Washington Center
Sun 04:11:05 PM 38.1511 -78.0078 220° Southwest 437 503 30,000  Level Washington Center
Sun 04:12:06 PM 38.0550 -78.1075 219° Southwest 437 503 30,000  Level Washington Center
Sun 04:13:07 PM 37.9778 -78.2103 226° Southwest 428 493 30,000  Level Washington Center
Sun 04:14:07 PM 37.9111 -78.3106 230° Southwest 420 483 30,000  Level Washington Center
Sun 04:15:05 PM 37.8314 -78.4208 228° Southwest 420 483 30,000  Level Washington Center
Sun 04:16:05 PM 37.7578 -78.5258 228° Southwest 420 483 30,000  Level Washington Center
Sun 04:17:06 PM 37.6778 -78.6381 228° Southwest 426 490 30,000  Level Washington Center
Sun 04:18:06 PM 37.5892 -78.7603 228° Southwest 426 490 30,000  Level Washington Center
Sun 04:19:07 PM 37.4925 -78.8611 220° Southwest 437 503 30,000  Level Washington Center
Sun 04:20:05 PM 37.3919 -78.9586 218° Southwest 449 517 30,000  Level Washington Center
Sun 04:21:06 PM 37.2931 -79.0589 219° Southwest 459 528 30,000  Level Washington Center
Sun 04:22:07 PM 37.1942 -79.1586 219° Southwest 464 534 30,000  Level Washington Center
Sun 04:23:07 PM 37.1058 -79.2483 219° Southwest 464 534 30,000  Level Washington Center
Sun 04:24:07 PM 37.0028 -79.3475 218° Southwest 464 534 30,000  Level Washington Center
Sun 04:25:05 PM 36.9056 -79.4467 219° Southwest 464 534 30,000  Level Washington Center
Sun 04:26:42 PM 36.7356 -79.6147 218° Southwest 464 534 30,000 -535 Level Atlanta Center
Sun 04:27:42 PM 36.6389 -79.7081 218° Southwest 464 534 28,600 -1,400 Descending Atlanta Center
Sun 04:28:42 PM 36.5481 -79.7981 219° Southwest 449 517 27,200 -1,300 Descending Atlanta Center
Sun 04:29:42 PM 36.4594 -79.8853 218° Southwest 426 490 26,000 -750 Descending Atlanta Center
Sun 04:30:42 PM 36.3742 -79.9544 213° Southwest 410 472 25,700 -900 Descending Atlanta Center
Sun 04:31:42 PM 36.2786 -80.0311 213° Southwest 410 472 24,200 -1,500 Descending Atlanta Center
Sun 04:32:42 PM 36.1853 -80.1106 214° Southwest 410 472 22,700 -1,150 Descending Atlanta Center
Sun 04:33:42 PM 36.0881 -80.2000 217° Southwest 405 466 21,900 -1,150 Descending Atlanta Center
Sun 04:34:42 PM 36.0025 -80.2733 215° Southwest 400 460 20,400 -1,650 Descending Atlanta Center
Sun 04:35:42 PM 35.9192 -80.3439 214° Southwest 387 445 18,600 -1,600 Descending Atlanta Center
Sun 04:36:42 PM 35.8419 -80.4089 214° Southwest 368 423 17,200 -1,532 Descending Atlanta Center
Sun 04:37:16 PM 35.8053 -80.4439 218° Southwest 317 365 16,200 -1,832 Descending Atlanta Center
Sun 04:38:17 PM 35.7342 -80.5058 215° Southwest 301 346 14,300 -1,918 Descending Atlanta Center
Sun 04:39:18 PM 35.6586 -80.5653 213° Southwest 297 342 12,300 -1,574 Descending Atlanta Center
Sun 04:40:19 PM 35.5914 -80.6217 214° Southwest 292 336 11,100 -683 Descending Atlanta Center
Sun 04:41:21 PM 35.5219 -80.6783 214° Southwest 296 341 10,900 -513 Descending Atlanta Center
Sun 04:42:16 PM 35.4608 -80.7267 213° Southwest 290 334 10,100 -414 Descending Atlanta Center
Sun 04:43:17 PM 35.3975 -80.7828 216° Southwest 284 327 10,100 -47 Level Atlanta Center
Sun 04:44:25 PM 35.3239 -80.8392 212° Southwest 253 291 10,000 -469 Descending Atlanta Center
Sun 04:45:25 PM 35.2531 -80.8392 180° South 255 293 9,100 -879 Descending Atlanta Center
Sun 04:46:21 PM 35.1861 -80.8317 175° South 258 297 8,300 -1,077 Descending Atlanta Center
Sun 04:47:22 PM 35.1150 -80.8242 175° South 250 288 7,000 -1,377 Descending Atlanta Center
Sun 04:48:23 PM 35.0461 -80.8219 178° South 245 282 5,500 -1,220 Descending Atlanta Center
Sun 04:49:25 PM 34.9833 -80.8167 176° South 193 222 4,500 -683 Descending Atlanta Center
Sun 04:50:26 PM 34.9617 -80.8708 244° Southwest 185 213 4,100 -246 Descending Atlanta Center
Sun 04:51:27 PM 34.9836 -80.9156 301° West 164 189 4,000  Descending Atlanta Center
Sun 04:52:28 PM 35.0278 -80.9214 354° North 147 169 4,100 -443 Climbing Atlanta Center
Sun 04:53:29 PM 35.0736 -80.9247 357° North 155 178 3,100 -651 Descending Atlanta Center
Sun 04:54:37 PM 35.1219 -80.9306 354° North 160 184 2,700 -683 Descending Atlanta Center
Sun 04:55:32 PM 35.1594 -80.9342 355° North 147 169 1,700 -1,091 Descending Atlanta Center

Login

Don't have an account? Register now (free) for customized features, flight alerts, and more!